Time;durP1;ratioP1;P1;durP2;ratioP2;P2;SDS_P1;SDS_P2;PMS_P1;PMS_P2;Temp;Humidity;BMP_temperature;BMP_pressure;BME280_temperature;BME280_humidity;BME280_pressure;Samples;Min_cycle;Max_cycle;Signal;HPM_P1;HPM_P2
2024/04/26 00:00:34;;;;;;;;;;;;;;;-146.42;100.00;66673.91;5376689;26;19930;-86
2024/04/26 00:02:59;;;;;;;;;;;;;;;-146.42;100.00;66673.91;5347158;26;20377;-87
2024/04/26 00:05:25;;;;;;;;;;;;;;;-146.42;100.00;66673.91;5376370;26;19937;-85
2024/04/26 00:07:50;;;;;;;;;;;;;;;-146.42;100.00;66673.91;5347237;26;20374;-86
2024/04/26 00:10:22;;;;;;;;;;;;;;;-146.42;100.00;66673.91;5347358;26;19966;-86
2024/04/26 00:12:48;;;;;;;;;;;;;;;-146.42;100.00;66673.91;5347128;26;19962;-86
2024/04/26 00:15:13;;;;;;;;;;;;;;;-146.42;100.00;66673.91;5318198;26;19999;-86
2024/04/26 00:17:40;;;;;;;;;;;;;;;-146.42;100.00;66673.91;5346866;26;19942;-85
2024/04/26 00:20:06;;;;;;;;;;;;;;;-146.42;100.00;66673.91;5346856;26;19930;-86
2024/04/26 00:22:32;;;;;;;;;;;;;;;-146.42;100.00;66673.91;5347272;26;20349;-86
2024/04/26 00:24:58;;;;;;;;;;;;;;;-146.42;100.00;66673.91;5346985;26;19976;-86
2024/04/26 00:27:23;;;;;;;;;;;;;;;-146.42;100.00;66673.91;5341995;26;19933;-86
2024/04/26 00:29:49;;;;;;;;;;;;;;;-146.42;100.00;66673.91;5339197;26;19937;-88
2024/04/26 00:32:17;;;;;;;;;;;;;;;-146.42;100.00;66673.91;5346204;26;19934;-86
2024/04/26 00:34:43;;;;;;;;;;;;;;;-146.42;100.00;66673.91;5344166;26;19937;-86
2024/04/26 00:37:09;;;;;;;;;;;;;;;-146.42;100.00;66673.91;5342955;26;19937;-87
2024/04/26 00:39:34;;;;;;;;;;;;;;;-146.42;100.00;66673.91;5316685;26;20000;-88
2024/04/26 00:42:01;;;;;;;;;;;;;;;-146.42;100.00;66673.91;5317968;26;19933;-88
2024/04/26 00:44:26;;;;;;;;;;;;;;;-146.42;100.00;66673.91;5345773;26;19934;-88
2024/04/26 00:46:52;;;;;;;;;;;;;;;-146.42;100.00;66673.91;5346034;26;20429;-87
2024/04/26 00:49:18;;;;;;;;;;;;;;;-146.42;100.00;66673.91;5323889;26;19930;-86
2024/04/26 00:51:44;;;;;;;;;;;;;;;-146.42;100.00;66673.91;5347033;26;19930;-87
2024/04/26 00:54:10;;;;;;;;;;;;;;;-146.42;100.00;66673.91;5346489;26;19956;-86
2024/04/26 00:56:36;;;;;;;;;;;;;;;-146.42;100.00;66673.91;5336776;26;19962;-87
2024/04/26 00:59:02;;;;;;;;;;;;;;;-146.42;100.00;66673.91;5316127;26;19930;-88
2024/04/26 01:01:27;;;;;;;;;;;;;;;-146.42;100.00;66673.91;5345409;26;19995;-89
2024/04/26 01:03:53;;;;;;;;;;;;;;;-146.42;100.00;66673.91;5346741;26;20327;-89
2024/04/26 01:06:19;;;;;;;;;;;;;;;-146.42;100.00;66673.91;5345070;26;20298;-89
2024/04/26 01:08:44;;;;;;;;;;;;;;;-146.42;100.00;66673.91;5345622;26;19938;-88
2024/04/26 01:11:12;;;;;;;;;;;;;;;-146.42;100.00;66673.91;5345585;26;19930;-87
2024/04/26 01:13:37;;;;;;;;;;;;;;;-146.42;100.00;66673.91;5345439;26;20397;-87
2024/04/26 01:16:11;;;;;;;;;;;;;;;-146.42;100.00;66673.91;5327930;26;19930;-87
2024/04/26 01:18:36;;;;;;;;;;;;;;;-146.42;100.00;66673.91;5337552;26;20004;-86
2024/04/26 01:21:02;;;;;;;;;;;;;;;-146.42;100.00;66673.91;5288693;26;20343;-88
2024/04/26 01:23:28;;;;;;;;;;;;;;;-146.42;100.00;66673.91;5344599;26;19949;-88
2024/04/26 01:25:57;;;;;;;;;;;;;;;-146.42;100.00;66673.91;5337685;26;19937;-87
2024/04/26 01:28:25;;;;;;;;;;;;;;;-146.42;100.00;66673.91;5343269;26;20386;-88
2024/04/26 01:30:51;;;;;;;;;;;;;;;-146.42;100.00;66673.91;5288426;26;19936;-86
2024/04/26 01:33:17;;;;;;;;;;;;;;;-146.42;100.00;66673.91;5345721;26;19941;-88
2024/04/26 01:35:42;;;;;;;;;;;;;;;-146.42;100.00;66673.91;5343055;26;19934;-87
2024/04/26 01:38:08;;;;;;;;;;;;;;;-146.42;100.00;66673.91;5344233;26;19934;-89
2024/04/26 01:40:33;;;;;;;;;;;;;;;-146.42;100.00;66673.91;5284648;26;19938;-87
2024/04/26 01:43:06;;;;;;;;;;;;;;;-146.42;100.00;66673.91;5288238;26;20258;-89
2024/04/26 01:45:31;;;;;;;;;;;;;;;-146.42;100.00;66673.91;5315862;26;20000;-87
2024/04/26 01:47:57;;;;;;;;;;;;;;;-146.42;100.00;66673.91;5345278;26;19965;-88
2024/04/26 01:50:24;;;;;;;;;;;;;;;-146.42;100.00;66673.91;5344833;26;19934;-88
2024/04/26 01:52:50;;;;;;;;;;;;;;;-146.42;100.00;66673.91;5316590;26;19966;-88
2024/04/26 01:55:15;;;;;;;;;;;;;;;-146.42;100.00;66673.91;5343144;26;19954;-89
2024/04/26 01:57:41;;;;;;;;;;;;;;;-146.42;100.00;66673.91;5347924;26;19930;-89
2024/04/26 02:00:07;;;;;;;;;;;;;;;-146.42;100.00;66673.91;5340240;26;19944;-89
2024/04/26 02:02:33;;;;;;;;;;;;;;;-146.42;100.00;66673.91;5348605;26;20273;-87
2024/04/26 02:05:03;;;;;;;;;;;;;;;-146.42;100.00;66673.91;5348308;26;19930;-89
2024/04/26 02:07:29;;;;;;;;;;;;;;;-146.42;100.00;66673.91;5346572;26;20373;-87
2024/04/26 02:09:55;;;;;;;;;;;;;;;-146.42;100.00;66673.91;5320486;26;19937;-88
2024/04/26 02:12:20;;;;;;;;;;;;;;;-146.42;100.00;66673.91;5292231;26;19930;-88
2024/04/26 02:14:46;;;;;;;;;;;;;;;-146.42;100.00;66673.91;5291838;26;19966;-88
2024/04/26 02:17:12;;;;;;;;;;;;;;;-146.42;100.00;66673.91;5348404;26;19938;-87
2024/04/26 02:19:40;;;;;;;;;;;;;;;-146.42;100.00;66673.91;5319332;26;19930;-90
2024/04/26 02:22:06;;;;;;;;;;;;;;;-146.42;100.00;66673.91;5291451;26;20369;-88
2024/04/26 02:24:31;;;;;;;;;;;;;;;-146.42;100.00;66673.91;5335245;26;20002;-89
2024/04/26 02:26:57;;;;;;;;;;;;;;;-146.42;100.00;66673.91;5288699;26;19940;-88
2024/04/26 02:29:24;;;;;;;;;;;;;;;-146.42;100.00;66673.91;5337155;26;19938;-88
2024/04/26 02:31:49;;;;;;;;;;;;;;;-146.42;100.00;66673.91;5347719;26;19944;-88
2024/04/26 02:34:18;;;;;;;;;;;;;;;-146.42;100.00;66673.91;5347888;26;19930;-88
2024/04/26 02:36:44;;;;;;;;;;;;;;;-146.42;100.00;66673.91;5349268;26;19938;-89
2024/04/26 02:39:09;;;;;;;;;;;;;;;-146.42;100.00;66673.91;5332144;26;20264;-88
2024/04/26 02:41:35;;;;;;;;;;;;;;;-146.42;100.00;66673.91;5348003;26;19999;-88
2024/04/26 02:44:04;;;;;;;;;;;;;;;-146.42;100.00;66673.91;5341798;26;19930;-87
2024/04/26 02:46:31;;;;;;;;;;;;;;;-146.42;100.00;66673.91;5347201;26;22464;-88
2024/04/26 02:48:57;;;;;;;;;;;;;;;-146.42;100.00;66673.91;5329126;26;20381;-88
2024/04/26 02:51:22;;;;;;;;;;;;;;;-146.42;100.00;66673.91;5348108;26;19942;-88
2024/04/26 02:53:48;;;;;;;;;;;;;;;-146.42;100.00;66673.91;5336701;26;19938;-88
2024/04/26 02:56:13;;;;;;;;;;;;;;;-146.42;100.00;66673.91;5347633;26;19941;-88
2024/04/26 02:58:39;;;;;;;;;;;;;;;-146.42;100.00;66673.91;5320533;26;20297;-88
2024/04/26 03:01:08;;;;;;;;;;;;;;;-146.42;100.00;66673.91;5296718;26;19941;-87
2024/04/26 03:03:35;;;;;;;;;;;;;;;-146.42;100.00;66673.91;5320005;26;19941;-88
2024/04/26 03:06:05;;;;;;;;;;;;;;;-146.42;100.00;66673.91;5319187;26;19942;-89
2024/04/26 03:08:30;;;;;;;;;;;;;;;-146.42;100.00;66673.91;5290528;26;19949;-89
2024/04/26 03:10:56;;;;;;;;;;;;;;;-146.42;100.00;66673.91;5347119;26;20422;-88
2024/04/26 03:13:21;;;;;;;;;;;;;;;-146.42;100.00;66673.91;5348109;26;19929;-88
2024/04/26 03:15:47;;;;;;;;;;;;;;;-146.42;100.00;66673.91;5290805;26;20274;-90
2024/04/26 03:18:12;;;;;;;;;;;;;;;-146.42;100.00;66673.91;5327124;26;20376;-90
2024/04/26 03:20:39;;;;;;;;;;;;;;;-146.42;100.00;66673.91;5310079;26;19938;-89
2024/04/26 03:23:04;;;;;;;;;;;;;;;-146.42;100.00;66673.91;5347835;26;19937;-89
2024/04/26 03:25:30;;;;;;;;;;;;;;;-146.42;100.00;66673.91;5347536;26;19930;-90
2024/04/26 03:27:56;;;;;;;;;;;;;;;-146.42;100.00;66673.91;5347709;26;19937;-89
2024/04/26 03:30:25;;;;;;;;;;;;;;;-146.42;100.00;66673.91;5283752;26;19937;-88
2024/04/26 03:32:50;;;;;;;;;;;;;;;-146.42;100.00;66673.91;5319396;26;19955;-90
2024/04/26 03:35:16;;;;;;;;;;;;;;;-146.42;100.00;66673.91;5347042;26;19930;-90
2024/04/26 03:37:41;;;;;;;;;;;;;;;-146.42;100.00;66673.91;5341906;26;19930;-89
2024/04/26 03:40:07;;;;;;;;;;;;;;;-146.42;100.00;66673.91;5334025;26;19973;-87
2024/04/26 03:42:33;;;;;;;;;;;;;;;-146.42;100.00;66673.91;5301265;26;19930;-88
2024/04/26 03:44:59;;;;;;;;;;;;;;;-146.42;100.00;66673.91;5318143;26;19934;-88
2024/04/26 03:47:25;;;;;;;;;;;;;;;-146.42;100.00;66673.91;5290281;26;19958;-88
2024/04/26 03:49:50;;;;;;;;;;;;;;;-146.42;100.00;66673.91;5318059;26;20455;-90
2024/04/26 03:52:16;;;;;;;;;;;;;;;-146.42;100.00;66673.91;5347261;26;19930;-88
2024/04/26 03:54:42;;;;;;;;;;;;;;;-146.42;100.00;66673.91;5345942;26;19930;-88
2024/04/26 03:57:07;;;;;;;;;;;;;;;-146.42;100.00;66673.91;5347096;26;19934;-88
2024/04/26 03:59:33;;;;;;;;;;;;;;;-146.42;100.00;66673.91;5316467;26;19930;-87
2024/04/26 04:01:58;;;;;;;;;;;;;;;-146.42;100.00;66673.91;5312843;26;19930;-88
2024/04/26 04:04:24;;;;;;;;;;;;;;;-146.42;100.00;66673.91;5314420;26;19941;-87
2024/04/26 04:06:49;;;;;;;;;;;;;;;-146.42;100.00;66673.91;5297110;26;19930;-87
2024/04/26 04:09:15;;;;;;;;;;;;;;;-146.42;100.00;66673.91;5332704;26;20000;-89
2024/04/26 04:11:40;;;;;;;;;;;;;;;-146.42;100.00;66673.91;5290088;26;19938;-87
2024/04/26 04:14:06;;;;;;;;;;;;;;;-146.42;100.00;66673.91;5288694;26;20268;-87
2024/04/26 04:16:34;;;;;;;;;;;;;;;-146.42;100.00;66673.91;5332070;26;19931;-87
2024/04/26 04:19:00;;;;;;;;;;;;;;;-146.42;100.00;66673.91;5322359;26;19957;-87
2024/04/26 04:21:27;;;;;;;;;;;;;;;-146.42;100.00;66673.91;5330843;26;19930;-87
2024/04/26 04:23:52;;;;;;;;;;;;;;;-146.42;100.00;66673.91;5302232;26;20338;-89
2024/04/26 04:26:21;;;;;;;;;;;;;;;-146.42;100.00;66673.91;5285508;27;19931;-88
2024/04/26 04:28:47;;;;;;;;;;;;;;;-146.42;100.00;66673.91;5341824;26;19957;-88
2024/04/26 04:31:12;;;;;;;;;;;;;;;-146.42;100.00;66673.91;5345923;26;20319;-86
2024/04/26 04:33:38;;;;;;;;;;;;;;;-146.42;100.00;66673.91;5346465;26;19941;-89
2024/04/26 04:36:04;;;;;;;;;;;;;;;-146.42;100.00;66673.91;5323854;26;19938;-87
2024/04/26 04:38:29;;;;;;;;;;;;;;;-146.42;100.00;66673.91;5312653;27;19931;-87
2024/04/26 04:40:55;;;;;;;;;;;;;;;-146.42;100.00;66673.91;5333912;26;19930;-87
2024/04/26 04:43:20;;;;;;;;;;;;;;;-146.42;100.00;66673.91;5319297;26;20312;-87
2024/04/26 04:45:46;;;;;;;;;;;;;;;-146.42;100.00;66673.91;5340787;26;19937;-88
2024/04/26 04:48:11;;;;;;;;;;;;;;;-146.42;100.00;66673.91;5347074;26;19937;-87
2024/04/26 04:50:38;;;;;;;;;;;;;;;-146.42;100.00;66673.91;5346511;26;19937;-87
2024/04/26 04:53:07;;;;;;;;;;;;;;;-146.42;100.00;66673.91;5317574;26;19938;-87
2024/04/26 04:55:32;;;;;;;;;;;;;;;-146.42;100.00;66673.91;5324297;26;19931;-87
2024/04/26 04:57:58;;;;;;;;;;;;;;;-146.42;100.00;66673.91;5346781;26;19938;-88
2024/04/26 05:00:23;;;;;;;;;;;;;;;-146.42;100.00;66673.91;5346344;26;19981;-88
2024/04/26 05:02:49;;;;;;;;;;;;;;;-146.42;100.00;66673.91;5346190;26;19942;-88
2024/04/26 05:05:15;;;;;;;;;;;;;;;-146.42;100.00;66673.91;5316414;26;20361;-88
2024/04/26 05:07:42;;;;;;;;;;;;;;;-146.42;100.00;66673.91;5317287;26;20076;-88
2024/04/26 05:10:10;;;;;;;;;;;;;;;-146.42;100.00;66673.91;5333322;26;19942;-88
2024/04/26 05:12:35;;;;;;;;;;;;;;;-146.42;100.00;66673.91;5297252;27;19930;-87
2024/04/26 05:15:02;;;;;;;;;;;;;;;-146.42;100.00;66673.91;5335729;26;20011;-88
2024/04/26 05:17:27;;;;;;;;;;;;;;;-146.42;100.00;66673.91;5317643;26;19937;-89
2024/04/26 05:19:53;;;;;;;;;;;;;;;-146.42;100.00;66673.91;5343400;26;20261;-87
2024/04/26 05:22:19;;;;;;;;;;;;;;;-146.42;100.00;66673.91;5349149;26;20294;-88
2024/04/26 05:24:44;;;;;;;;;;;;;;;-146.42;100.00;66673.91;5342277;26;20341;-87
2024/04/26 05:27:15;;;;;;;;;;;;;;;-146.42;100.00;66673.91;5349176;26;20368;-88
2024/04/26 05:29:41;;;;;;;;;;;;;;;-146.42;100.00;66673.91;5320320;26;19942;-89
2024/04/26 05:32:07;;;;;;;;;;;;;;;-146.42;100.00;66673.91;5318831;26;19937;-88
2024/04/26 05:34:32;;;;;;;;;;;;;;;-146.42;100.00;66673.91;5319383;26;19930;-89
2024/04/26 05:36:58;;;;;;;;;;;;;;;-146.42;100.00;66673.91;5318314;26;19954;-87
2024/04/26 05:39:23;;;;;;;;;;;;;;;-146.42;100.00;66673.91;5342679;26;19930;-88
2024/04/26 05:41:49;;;;;;;;;;;;;;;-146.42;100.00;66673.91;5364385;26;19969;-89
2024/04/26 05:44:14;;;;;;;;;;;;;;;-146.42;100.00;66673.91;5352448;26;19937;-89
2024/04/26 05:46:40;;;;;;;;;;;;;;;-146.42;100.00;66673.91;5319666;26;19999;-88
2024/04/26 05:49:06;;;;;;;;;;;;;;;-146.42;100.00;66673.91;5332895;26;20009;-88
2024/04/26 05:51:31;;;;;;;;;;;;;;;-146.42;100.00;66673.91;5311537;26;19930;-89
2024/04/26 05:53:58;;;;;;;;;;;;;;;-146.42;100.00;66673.91;5325445;26;20336;-89
2024/04/26 05:56:24;;;;;;;;;;;;;;;-146.42;100.00;66673.91;5314205;26;19931;-89
2024/04/26 05:58:50;;;;;;;;;;;;;;;-146.42;100.00;66673.91;5333295;26;19937;-89
2024/04/26 06:01:15;;;;;;;;;;;;;;;-146.42;100.00;66673.91;5347044;26;19930;-89
2024/04/26 06:03:41;;;;;;;;;;;;;;;-146.42;100.00;66673.91;5319516;26;20275;-88
2024/04/26 06:06:09;;;;;;;;;;;;;;;-146.42;100.00;66673.91;5346706;26;19930;-89
2024/04/26 06:08:35;;;;;;;;;;;;;;;-146.42;100.00;66673.91;5347677;26;19962;-89
2024/04/26 06:11:01;;;;;;;;;;;;;;;-146.42;100.00;66673.91;5348388;26;19980;-88
2024/04/26 06:13:26;;;;;;;;;;;;;;;-146.42;100.00;66673.91;5319508;26;20007;-88
2024/04/26 06:15:52;;;;;;;;;;;;;;;-146.42;100.00;66673.91;5290866;26;19938;-88
2024/04/26 06:18:20;;;;;;;;;;;;;;;-146.42;100.00;66673.91;5291675;26;19930;-87
2024/04/26 06:20:45;;;;;;;;;;;;;;;-146.42;100.00;66673.91;5319803;26;20020;-87
2024/04/26 06:23:11;;;;;;;;;;;;;;;-146.42;100.00;66673.91;5291459;26;20363;-88
2024/04/26 06:25:36;;;;;;;;;;;;;;;-146.42;100.00;66673.91;5347335;26;19930;-89
2024/04/26 06:28:02;;;;;;;;;;;;;;;-146.42;100.00;66673.91;5339123;26;19945;-87
2024/04/26 06:30:27;;;;;;;;;;;;;;;-146.42;100.00;66673.91;5350821;26;19940;-87
2024/04/26 06:32:53;;;;;;;;;;;;;;;-146.42;100.00;66673.91;5346752;26;19931;-87
2024/04/26 06:35:19;;;;;;;;;;;;;;;-146.42;100.00;66673.91;5348746;26;19929;-87
2024/04/26 06:37:44;;;;;;;;;;;;;;;-146.42;100.00;66673.91;5349100;26;20270;-87
2024/04/26 06:40:10;;;;;;;;;;;;;;;-146.42;100.00;66673.91;5348418;26;19930;-88
2024/04/26 06:42:35;;;;;;;;;;;;;;;-146.42;100.00;66673.91;5344446;26;19937;-88
2024/04/26 06:45:01;;;;;;;;;;;;;;;-146.42;100.00;66673.91;5335869;26;20277;-88
2024/04/26 06:47:26;;;;;;;;;;;;;;;-146.42;100.00;66673.91;5313779;27;19938;-88
2024/04/26 06:49:52;;;;;;;;;;;;;;;-146.42;100.00;66673.91;5313997;27;19942;-88
2024/04/26 06:52:19;;;;;;;;;;;;;;;-146.42;100.00;66673.91;5339591;26;19938;-88
2024/04/26 06:54:44;;;;;;;;;;;;;;;-146.42;100.00;66673.91;5339200;26;19941;-88
2024/04/26 06:57:10;;;;;;;;;;;;;;;-146.42;100.00;66673.91;5314236;26;19930;-89
2024/04/26 06:59:35;;;;;;;;;;;;;;;-146.42;100.00;66673.91;5290407;26;19962;-88
2024/04/26 07:02:02;;;;;;;;;;;;;;;-146.42;100.00;66673.91;5347613;26;20269;-88
2024/04/26 07:04:28;;;;;;;;;;;;;;;-146.42;100.00;66673.91;5348075;26;19937;-89
2024/04/26 07:06:53;;;;;;;;;;;;;;;-146.42;100.00;66673.91;5333405;26;19938;-88
2024/04/26 07:09:19;;;;;;;;;;;;;;;-146.42;100.00;66673.91;5317623;26;19936;-89
2024/04/26 07:11:45;;;;;;;;;;;;;;;-146.42;100.00;66673.91;5289466;26;19934;-88
2024/04/26 07:14:10;;;;;;;;;;;;;;;-146.42;100.00;66673.91;5334312;26;19938;-87
2024/04/26 07:16:36;;;;;;;;;;;;;;;-146.42;100.00;66673.91;5326550;26;20382;-88
2024/04/26 07:19:02;;;;;;;;;;;;;;;-146.42;100.00;66673.91;5345513;26;19923;-88
2024/04/26 07:21:27;;;;;;;;;;;;;;;-146.42;100.00;66673.91;5354601;26;19931;-88
2024/04/26 07:23:52;;;;;;;;;;;;;;;-146.42;100.00;66673.91;5314758;26;19973;-88
2024/04/26 07:26:21;;;;;;;;;;;;;;;-146.42;100.00;66673.91;5289149;26;19937;-88
2024/04/26 07:28:47;;;;;;;;;;;;;;;-146.42;100.00;66673.91;5290143;26;20260;-87
2024/04/26 07:31:12;;;;;;;;;;;;;;;-146.42;100.00;66673.91;5347558;26;19937;-87
2024/04/26 07:33:38;;;;;;;;;;;;;;;-146.42;100.00;66673.91;5319116;26;19930;-87
2024/04/26 07:36:04;;;;;;;;;;;;;;;-146.42;100.00;66673.91;5289895;26;19937;-87
2024/04/26 07:38:29;;;;;;;;;;;;;;;-146.42;100.00;66673.91;5318989;26;19938;-87
2024/04/26 07:40:55;;;;;;;;;;;;;;;-146.42;100.00;66673.91;5335240;26;19945;-89
2024/04/26 07:43:20;;;;;;;;;;;;;;;-146.42;100.00;66673.91;5329123;26;20328;-88
2024/04/26 07:45:46;;;;;;;;;;;;;;;-146.42;100.00;66673.91;5318523;26;19937;-87
2024/04/26 07:48:11;;;;;;;;;;;;;;;-146.42;100.00;66673.91;5325324;26;19931;-87
2024/04/26 07:50:37;;;;;;;;;;;;;;;-146.42;100.00;66673.91;5334378;26;19936;-88
2024/04/26 07:53:02;;;;;;;;;;;;;;;-146.42;100.00;66673.91;5345500;26;19947;-88
2024/04/26 07:55:30;;;;;;;;;;;;;;;-146.42;100.00;66673.91;5337935;26;20265;-87
2024/04/26 07:57:56;;;;;;;;;;;;;;;-146.42;100.00;66673.91;5291046;26;20254;-86
2024/04/26 08:00:21;;;;;;;;;;;;;;;-146.42;100.00;66673.91;5347019;26;19930;-92
2024/04/26 08:02:47;;;;;;;;;;;;;;;-146.42;100.00;66673.91;5316842;26;19940;-86
2024/04/26 08:05:13;;;;;;;;;;;;;;;-146.42;100.00;66673.91;5284110;27;19958;-86
2024/04/26 08:07:38;;;;;;;;;;;;;;;-146.42;100.00;66673.91;5314726;26;19931;-86
2024/04/26 08:10:04;;;;;;;;;;;;;;;-146.42;100.00;66673.91;5307983;26;20026;-86
2024/04/26 08:12:29;;;;;;;;;;;;;;;-146.42;100.00;66673.91;5347144;26;19942;-87
2024/04/26 08:14:55;;;;;;;;;;;;;;;-146.42;100.00;66673.91;5346833;26;20384;-86
2024/04/26 08:17:25;;;;;;;;;;;;;;;-146.42;100.00;66673.91;5321478;26;19938;-86
2024/04/26 08:19:51;;;;;;;;;;;;;;;-146.42;100.00;66673.91;5300044;26;20343;-87
2024/04/26 08:22:20;;;;;;;;;;;;;;;-146.42;100.00;66673.91;5343460;26;20007;-90
2024/04/26 08:24:45;;;;;;;;;;;;;;;-146.42;100.00;66673.91;5285000;27;19958;-91
2024/04/26 08:27:11;;;;;;;;;;;;;;;-146.42;100.00;66673.91;5313318;27;20246;-92
2024/04/26 08:29:37;;;;;;;;;;;;;;;-146.42;100.00;66673.91;5313255;27;20015;-93
2024/04/26 08:32:02;;;;;;;;;;;;;;;-146.42;100.00;66673.91;5319153;26;19931;-90
2024/04/26 08:34:28;;;;;;;;;;;;;;;-146.42;100.00;66673.91;5327625;27;19931;-89
2024/04/26 08:36:54;;;;;;;;;;;;;;;-146.42;100.00;66673.91;5295629;27;19935;-92
2024/04/26 08:39:19;;;;;;;;;;;;;;;-146.42;100.00;66673.91;5328354;27;19931;-90
2024/04/26 08:41:45;;;;;;;;;;;;;;;-146.42;100.00;66673.91;5286780;27;19941;-92
2024/04/26 08:44:11;;;;;;;;;;;;;;;-146.42;100.00;66673.91;5321523;27;20282;-90
2024/04/26 08:46:37;;;;;;;;;;;;;;;-146.42;100.00;66673.91;5313375;27;20253;-90
2024/04/26 08:49:03;;;;;;;;;;;;;;;-146.42;100.00;66673.91;5284435;27;19942;-90
2024/04/26 08:51:28;;;;;;;;;;;;;;;-146.42;100.00;66673.91;5312877;26;20427;-93
2024/04/26 08:53:54;;;;;;;;;;;;;;;-146.42;100.00;66673.91;5284439;27;19942;-90
2024/04/26 08:56:19;;;;;;;;;;;;;;;-146.42;100.00;66673.91;5284262;27;19931;-90
2024/04/26 08:58:48;;;;;;;;;;;;;;;-146.42;100.00;66673.91;5312734;27;19931;-90
2024/04/26 09:01:14;;;;;;;;;;;;;;;-146.42;100.00;66673.91;5312795;27;19931;-92
2024/04/26 09:03:42;;;;;;;;;;;;;;;-146.42;100.00;66673.91;5284177;27;19930;-92
2024/04/26 09:06:07;;;;;;;;;;;;;;;-146.42;100.00;66673.91;5314069;27;19977;-90
2024/04/26 09:08:33;;;;;;;;;;;;;;;-146.42;100.00;66673.91;5312859;27;20385;-91
2024/04/26 09:10:58;;;;;;;;;;;;;;;-146.42;100.00;66673.91;5312500;27;19930;-90
2024/04/26 09:13:25;;;;;;;;;;;;;;;-146.42;100.00;66673.91;5312188;27;19938;-91
2024/04/26 09:15:51;;;;;;;;;;;;;;;-146.42;100.00;66673.91;5284450;27;19941;-93
2024/04/26 09:18:16;;;;;;;;;;;;;;;-146.42;100.00;66673.91;5312589;27;20362;-92
2024/04/26 09:20:42;;;;;;;;;;;;;;;-146.42;100.00;66673.91;5312798;27;19938;-90
2024/04/26 09:23:09;;;;;;;;;;;;;;;-146.42;100.00;66673.91;5312209;26;19942;-91
2024/04/26 09:25:39;;;;;;;;;;;;;;;-146.42;100.00;66673.91;5313144;26;19931;-89
2024/04/26 09:28:06;;;;;;;;;;;;;;;-146.42;100.00;66673.91;5284831;27;19931;-90
2024/04/26 09:30:32;;;;;;;;;;;;;;;-146.42;100.00;66673.91;5312317;27;20358;-91
2024/04/26 09:32:57;;;;;;;;;;;;;;;-146.42;100.00;66673.91;5283743;27;19941;-91
2024/04/26 09:35:23;;;;;;;;;;;;;;;-146.42;100.00;66673.91;5313879;27;19930;-89
2024/04/26 09:37:49;;;;;;;;;;;;;;;-146.42;100.00;66673.91;5297438;26;19942;-89
2024/04/26 09:40:16;;;;;;;;;;;;;;;-146.42;100.00;66673.91;5322151;26;19941;-88
2024/04/26 09:42:41;;;;;;;;;;;;;;;-146.42;100.00;66673.91;5339182;26;19922;-86
2024/04/26 09:45:07;;;;;;;;;;;;;;;-146.42;100.00;66673.91;5324219;26;19937;-86
2024/04/26 09:47:33;;;;;;;;;;;;;;;-146.42;100.00;66673.91;5345741;26;19937;-86
2024/04/26 09:49:58;;;;;;;;;;;;;;;-146.42;100.00;66673.91;5316457;26;19930;-85
2024/04/26 09:52:24;;;;;;;;;;;;;;;-146.42;100.00;66673.91;5320428;26;20001;-85
2024/04/26 09:54:49;;;;;;;;;;;;;;;-146.42;100.00;66673.91;5312921;26;19937;-83
2024/04/26 09:57:15;;;;;;;;;;;;;;;-146.42;100.00;66673.91;5344902;26;20296;-84
2024/04/26 09:59:41;;;;;;;;;;;;;;;-146.42;100.00;66673.91;5315296;26;20256;-84
2024/04/26 10:02:11;;;;;;;;;;;;;;;-146.42;100.00;66673.91;5348032;26;19930;-86
2024/04/26 10:04:39;;;;;;;;;;;;;;;-146.42;100.00;66673.91;5352438;26;19942;-86
2024/04/26 10:07:05;;;;;;;;;;;;;;;-146.42;100.00;66673.91;5339093;26;19929;-87
2024/04/26 10:09:31;;;;;;;;;;;;;;;-146.42;100.00;66673.91;5322365;26;19930;-85
2024/04/26 10:11:56;;;;;;;;;;;;;;;-146.42;100.00;66673.91;5344655;26;19938;-86
2024/04/26 10:14:28;;;;;;;;;;;;;;;-146.42;100.00;66673.91;5372926;26;19930;-87
2024/04/26 10:17:04;;;;;;;;;;;;;;;-146.42;100.00;66673.91;5287288;26;19953;-85
2024/04/26 10:19:30;;;;;;;;;;;;;;;-146.42;100.00;66673.91;5319098;26;19930;-85
2024/04/26 10:22:05;;;;;;;;;;;;;;;-146.42;100.00;66673.91;5291264;26;19936;-84
2024/04/26 10:24:34;;;;;;;;;;;;;;;-146.42;100.00;66673.91;5290782;26;20264;-83
2024/04/26 10:27:03;;;;;;;;;;;;;;;-146.42;100.00;66673.91;5320000;26;19930;-89
2024/04/26 10:29:29;;;;;;;;;;;;;;;-146.42;100.00;66673.91;5320702;26;19930;-89
2024/04/26 10:31:56;;;;;;;;;;;;;;;-146.42;100.00;66673.91;5291303;26;19941;-88
2024/04/26 10:34:31;;;;;;;;;;;;;;;-146.42;100.00;66673.91;5319260;26;19934;-88
2024/04/26 10:36:58;;;;;;;;;;;;;;;-146.42;100.00;66673.91;5290473;26;19949;-87
2024/04/26 10:39:25;;;;;;;;;;;;;;;-146.42;100.00;66673.91;5348530;26;19930;-91
2024/04/26 10:41:51;;;;;;;;;;;;;;;-146.42;100.00;66673.91;5320471;26;20265;-88
2024/04/26 10:44:16;;;;;;;;;;;;;;;-146.42;100.00;66673.91;5345757;26;19945;-90
2024/04/26 10:46:42;;;;;;;;;;;;;;;-146.42;100.00;66673.91;5349284;26;20365;-89
2024/04/26 10:49:14;;;;;;;;;;;;;;;-146.42;100.00;66673.91;5348653;26;20289;-88
2024/04/26 10:51:39;;;;;;;;;;;;;;;-146.42;100.00;66673.91;5348611;26;20364;-87
2024/04/26 10:54:05;;;;;;;;;;;;;;;-146.42;100.00;66673.91;5348063;26;19930;-90
2024/04/26 10:56:43;;;;;;;;;;;;;;;-146.42;100.00;66673.91;5316614;26;20258;-87
2024/04/26 10:59:20;;;;;;;;;;;;;;;-146.42;100.00;66673.91;5350971;26;19934;-90
2024/04/26 11:01:46;;;;;;;;;;;;;;;-146.42;100.00;66673.91;5317575;26;19938;-89
2024/04/26 11:04:20;;;;;;;;;;;;;;;-146.42;100.00;66673.91;5314275;26;19931;-89
2024/04/26 11:06:45;;;;;;;;;;;;;;;-146.42;100.00;66673.91;5313878;27;19930;-88
2024/04/26 11:09:17;;;;;;;;;;;;;;;-146.42;100.00;66673.91;5315754;26;19937;-89
2024/04/26 11:11:55;;;;;;;;;;;;;;;-146.42;100.00;66673.91;5344255;26;19999;-88
2024/04/26 11:14:22;;;;;;;;;;;;;;;-146.42;100.00;66673.91;5347763;26;19942;-89
2024/04/26 11:16:48;;;;;;;;;;;;;;;-146.42;100.00;66673.91;5347904;26;19930;-89
2024/04/26 11:19:14;;;;;;;;;;;;;;;-146.42;100.00;66673.91;5347150;26;19930;-88
2024/04/26 11:21:39;;;;;;;;;;;;;;;-146.42;100.00;66673.91;5347895;26;19980;-91
2024/04/26 11:24:05;;;;;;;;;;;;;;;-146.42;100.00;66673.91;5348069;26;19940;-88
2024/04/26 11:26:31;;;;;;;;;;;;;;;-146.42;100.00;66673.91;5348275;26;19930;-89
2024/04/26 11:28:56;;;;;;;;;;;;;;;-146.42;100.00;66673.91;5349481;26;20360;-90
2024/04/26 11:31:27;;;;;;;;;;;;;;;-146.42;100.00;66673.91;5349735;26;19930;-89
2024/04/26 11:33:53;;;;;;;;;;;;;;;-146.42;100.00;66673.91;5348750;26;19958;-89
2024/04/26 11:36:20;;;;;;;;;;;;;;;-146.42;100.00;66673.91;5347969;26;19938;-89
2024/04/26 11:38:53;;;;;;;;;;;;;;;-146.42;100.00;66673.91;5348302;26;19996;-88
2024/04/26 11:41:18;;;;;;;;;;;;;;;-146.42;100.00;66673.91;5349503;26;19937;-88
2024/04/26 11:43:44;;;;;;;;;;;;;;;-146.42;100.00;66673.91;5349150;26;19930;-88
2024/04/26 11:46:09;;;;;;;;;;;;;;;-146.42;100.00;66673.91;5351444;26;19937;-88
2024/04/26 11:48:35;;;;;;;;;;;;;;;-146.42;100.00;66673.91;5319458;26;20280;-89
2024/04/26 11:51:00;;;;;;;;;;;;;;;-146.42;100.00;66673.91;5347681;26;19966;-89
2024/04/26 11:53:26;;;;;;;;;;;;;;;-146.42;100.00;66673.91;5345215;26;19936;-86
2024/04/26 11:55:52;;;;;;;;;;;;;;;-146.42;100.00;66673.91;5347843;26;19930;-88
2024/04/26 11:58:18;;;;;;;;;;;;;;;-146.42;100.00;66673.91;5322081;26;19934;-88
2024/04/26 12:00:44;;;;;;;;;;;;;;;-146.42;100.00;66673.91;5312847;26;19959;-87
2024/04/26 12:03:09;;;;;;;;;;;;;;;-146.42;100.00;66673.91;5315814;26;20253;-88
2024/04/26 12:05:38;;;;;;;;;;;;;;;-146.42;100.00;66673.91;5346876;26;19930;-87
2024/04/26 12:08:07;;;;;;;;;;;;;;;-146.42;100.00;66673.91;5278515;26;19930;-87
2024/04/26 12:10:32;;;;;;;;;;;;;;;-146.42;100.00;66673.91;5318181;26;20369;-88
2024/04/26 12:12:58;;;;;;;;;;;;;;;-146.42;100.00;66673.91;5376185;26;19934;-87